Total de visites : 254161 | les spotteurs aujourd'hui : 176 | les spotteurs connect├ęs actuellement : 1
METAR EN COURS : Saint-Denis / Gillot, Reunion (FMEE) 20-53S 055-31E 25M- - - - Feb 17, 2019 - 04:00 PM EST / 2019.02.17 2100 UTC- - - - Wind: from the ESE (110 degrees) at 10 MPH (9 KT):0- - - - Visibility: greater than 7 mile(s):0- - - - Weather: Cumulonimbus clouds, towering cumulus clouds observed- - - - Temperature: 78 F (26 C)- - - - Dew Point: 68 F (20 C)- - - - Relative Humidity: 69%- - - - Pressure (altimeter): 29.94 in. Hg (1014 hPa)- - - - ob: FMEE 172100Z AUTO 11009KT 9999 ///TCU 26/20 Q1014 TEMPO 4000 SHRA FEW018CB SCT020TCU- - - - cycle: 21- - - -